createdAt,value
2018-04-28T00:01:04.485Z,12.00
2018-04-28T00:03:31.936Z,11.95
2018-04-28T00:05:59.490Z,11.85
2018-04-28T00:08:30.923Z,11.76
2018-04-28T00:10:58.466Z,11.67
2018-04-28T00:13:26.027Z,11.59
2018-04-28T00:15:53.558Z,11.56
2018-04-28T00:18:24.666Z,11.49
2018-04-28T00:20:52.187Z,11.41
2018-04-28T00:23:19.703Z,11.38
2018-04-28T00:25:58.133Z,11.36
2018-04-28T00:28:48.388Z,11.34
2018-04-28T00:31:37.532Z,11.35
2018-04-28T00:34:16.892Z,11.28
2018-04-28T00:40:03.207Z,11.22
2018-04-28T00:42:35.646Z,11.21
2018-04-28T00:45:05.157Z,11.17
2018-04-28T00:47:32.660Z,11.14
2018-04-28T00:50:02.984Z,11.17
2018-04-28T00:52:30.581Z,11.19
2018-04-28T00:55:17.639Z,11.14
2018-04-28T01:01:06.641Z,11.07
2018-04-28T01:03:35.898Z,11.06
2018-04-28T01:06:03.397Z,10.99
2018-04-28T01:08:30.973Z,10.93
2018-04-28T01:11:04.373Z,10.93
2018-04-28T01:16:27.127Z,10.90
2018-04-28T01:18:56.573Z,10.86
2018-04-28T01:21:42.748Z,10.84
2018-04-28T01:27:33.095Z,10.85
2018-04-28T01:33:10.120Z,10.82
2018-04-28T01:38:43.093Z,10.96
2018-04-28T01:41:36.167Z,11.08
2018-04-28T01:44:09.453Z,11.12
2018-04-28T01:46:56.392Z,11.15
2018-04-28T01:52:28.380Z,11.11
2018-04-28T01:55:02.661Z,11.14
2018-04-28T01:57:40.108Z,11.09
2018-04-28T02:00:16.050Z,11.02
2018-04-28T02:02:46.306Z,10.95
2018-04-28T02:08:11.678Z,10.83
2018-04-28T02:10:46.526Z,10.81
2018-04-28T02:13:14.804Z,10.83
2018-04-28T02:15:45.177Z,10.91
2018-04-28T02:18:16.246Z,10.97
2018-04-28T02:20:55.506Z,11.02
2018-04-28T02:23:43.682Z,11.09
2018-04-28T02:29:41.258Z,11.16
2018-04-28T02:32:12.504Z,11.16
2018-04-28T02:37:47.137Z,11.13
2018-04-28T02:40:34.386Z,11.17
2018-04-28T02:43:02.044Z,11.12
2018-04-28T02:45:33.335Z,11.13
2018-04-28T02:48:04.710Z,11.19
2018-04-28T02:50:32.204Z,11.17
2018-04-28T02:53:11.662Z,11.13
2018-04-28T02:55:48.998Z,11.16
2018-04-28T02:58:18.021Z,11.16
2018-04-28T03:03:49.514Z,11.20
2018-04-28T03:06:27.723Z,11.11
2018-04-28T03:08:55.257Z,11.13
2018-04-28T03:11:22.791Z,11.07
2018-04-28T03:13:52.006Z,11.06
2018-04-28T03:16:30.113Z,11.00
2018-04-28T03:19:12.486Z,10.93
2018-04-28T03:21:49.194Z,10.87
2018-04-28T03:24:23.055Z,10.96
2018-04-28T03:27:03.669Z,11.01
2018-04-28T03:29:34.110Z,10.88
2018-04-28T03:32:01.612Z,10.86
2018-04-28T03:34:33.652Z,10.82
2018-04-28T03:40:16.880Z,10.75
2018-04-28T03:42:46.206Z,10.68
2018-04-28T03:45:13.736Z,10.63
2018-04-28T03:50:37.768Z,10.73
2018-04-28T03:53:23.822Z,10.72
2018-04-28T03:56:07.900Z,10.79
2018-04-28T03:58:47.237Z,10.92
2018-04-28T04:01:26.555Z,10.95
2018-04-28T04:04:01.088Z,11.01
2018-04-28T04:06:43.488Z,11.02
2018-04-28T04:09:12.729Z,11.01
2018-04-28T04:14:49.917Z,11.07
2018-04-28T04:20:53.540Z,11.27
2018-04-28T04:23:28.777Z,11.32
2018-04-28T04:29:18.541Z,11.42
2018-04-28T04:31:55.762Z,11.44
2018-04-28T04:34:45.783Z,11.48
2018-04-28T04:37:27.797Z,11.51
2018-04-28T04:40:01.149Z,11.56
2018-04-28T04:42:31.219Z,11.63
2018-04-28T04:45:03.378Z,11.70
2018-04-28T04:47:38.553Z,11.78
2018-04-28T04:50:12.003Z,11.90
2018-04-28T04:52:43.373Z,12.01
2018-04-28T04:58:32.748Z,12.20
2018-04-28T05:01:15.963Z,12.23
2018-04-28T05:07:11.429Z,12.40
2018-04-28T05:13:06.378Z,12.61
2018-04-28T05:15:44.530Z,12.72
2018-04-28T05:18:24.676Z,12.83
2018-04-28T05:21:04.008Z,12.94
2018-04-28T05:26:57.495Z,13.12
2018-04-28T05:29:47.406Z,13.26
2018-04-28T05:38:45.467Z,13.56
2018-04-28T05:41:20.763Z,13.62
2018-04-28T05:46:52.833Z,13.75
2018-04-28T05:49:28.126Z,13.78
2018-04-28T05:51:58.418Z,13.90
2018-04-28T05:54:43.690Z,13.99
2018-04-28T05:57:17.827Z,14.05
2018-04-28T06:03:08.882Z,14.31
2018-04-28T06:05:38.987Z,14.41
2018-04-28T06:11:46.486Z,14.52
2018-04-28T06:14:25.726Z,14.61
2018-04-28T06:17:00.130Z,14.64
2018-04-28T06:22:32.502Z,14.85
2018-04-28T06:25:00.027Z,15.10
2018-04-28T06:27:27.558Z,15.16
2018-04-28T06:29:55.068Z,15.15
2018-04-28T06:32:22.587Z,15.15
2018-04-28T06:34:50.087Z,15.21
2018-04-28T06:37:17.597Z,15.38
2018-04-28T06:39:45.131Z,15.56
2018-04-28T06:42:12.632Z,15.73
2018-04-28T06:44:40.173Z,15.78
2018-04-28T06:47:07.717Z,16.02
2018-04-28T06:49:35.243Z,16.12
2018-04-28T06:52:02.782Z,16.33
2018-04-28T06:54:30.288Z,16.45
2018-04-28T06:56:57.801Z,16.50
2018-04-28T06:59:25.324Z,16.64
2018-04-28T07:01:52.869Z,16.77
2018-04-28T07:04:20.454Z,16.76
2018-04-28T07:06:47.993Z,16.78
2018-04-28T07:09:15.503Z,17.03
2018-04-28T07:11:43.031Z,17.05
2018-04-28T07:16:44.304Z,17.14
2018-04-28T07:19:11.796Z,17.18
2018-04-28T07:21:39.320Z,17.07
2018-04-28T07:24:06.847Z,17.15
2018-04-28T07:26:34.381Z,17.23
2018-04-28T07:29:01.890Z,17.29
2018-04-28T07:31:29.400Z,17.50
2018-04-28T07:33:56.909Z,17.66
2018-04-28T07:36:24.422Z,17.62
2018-04-28T07:38:51.916Z,17.69
2018-04-28T07:41:19.409Z,17.76
2018-04-28T07:43:46.940Z,17.87
2018-04-28T07:46:14.467Z,17.99
2018-04-28T07:48:42.015Z,17.93
2018-04-28T07:51:09.535Z,18.05
2018-04-28T07:53:37.061Z,18.12
2018-04-28T07:56:04.569Z,18.05
2018-04-28T07:58:32.060Z,18.24
2018-04-28T08:00:59.579Z,18.21
2018-04-28T08:03:27.117Z,18.30
2018-04-28T08:18:56.602Z,18.78
2018-04-28T08:21:24.151Z,18.91
2018-04-28T08:23:51.665Z,18.97
2018-04-28T08:26:19.200Z,19.10
2018-04-28T08:28:46.709Z,19.12
2018-04-28T08:31:14.226Z,19.33
2018-04-28T08:33:41.740Z,19.39
2018-04-28T08:36:09.275Z,19.46
2018-04-28T08:38:36.814Z,19.47
2018-04-28T08:41:04.335Z,19.60
2018-04-28T08:43:31.853Z,19.63
2018-04-28T08:45:59.346Z,19.74
2018-04-28T08:48:26.842Z,19.76
2018-04-28T08:50:54.351Z,19.79
2018-04-28T08:53:21.882Z,19.87
2018-04-28T08:55:49.363Z,19.94
2018-04-28T08:58:17.138Z,20.00
2018-04-28T09:01:03.455Z,20.16
2018-04-28T09:03:30.997Z,20.12
2018-04-28T09:05:58.502Z,20.29
2018-04-28T09:08:26.021Z,20.42
2018-04-28T09:10:53.524Z,20.47
2018-04-28T09:13:21.040Z,20.43
2018-04-28T09:15:48.573Z,20.44
2018-04-28T09:18:16.063Z,20.59
2018-04-28T09:20:43.552Z,20.69
2018-04-28T09:23:11.119Z,20.68
2018-04-28T09:25:38.623Z,20.67
2018-04-28T09:28:06.117Z,20.73
2018-04-28T09:30:33.662Z,20.81
2018-04-28T09:33:01.228Z,20.96
2018-04-28T09:35:28.768Z,21.04
2018-04-28T09:37:56.290Z,21.09
2018-04-28T09:40:23.841Z,21.23
2018-04-28T09:42:51.436Z,21.25
2018-04-28T09:45:18.999Z,21.23
2018-04-28T09:47:46.579Z,21.26
2018-04-28T09:50:14.219Z,21.33
2018-04-28T09:52:41.781Z,21.49
2018-04-28T09:55:09.286Z,21.59
2018-04-28T09:57:36.807Z,21.58
2018-04-28T10:00:16.245Z,21.55
2018-04-28T10:02:43.803Z,21.70
2018-04-28T10:05:11.378Z,21.93
2018-04-28T10:07:38.967Z,22.17
2018-04-28T10:10:06.561Z,22.23
2018-04-28T10:12:34.089Z,22.39
2018-04-28T10:15:01.639Z,22.32
2018-04-28T10:17:29.220Z,22.26
2018-04-28T10:19:56.750Z,22.41
2018-04-28T10:22:24.331Z,22.33
2018-04-28T10:24:51.878Z,22.29
2018-04-28T10:27:19.470Z,22.36
2018-04-28T10:29:46.971Z,22.55
2018-04-28T10:32:14.450Z,22.65
2018-04-28T10:34:58.866Z,22.54
2018-04-28T10:37:26.435Z,22.58
2018-04-28T10:39:53.923Z,22.72
2018-04-28T10:42:21.380Z,22.89
2018-04-28T10:44:48.915Z,22.97
2018-04-28T10:47:16.434Z,23.04
2018-04-28T10:49:43.972Z,23.29
2018-04-28T10:52:11.492Z,23.50
2018-04-28T10:54:39.019Z,23.61
2018-04-28T10:57:06.545Z,23.78
2018-04-28T10:59:34.035Z,23.81
2018-04-28T11:02:01.548Z,24.05
2018-04-28T11:04:29.192Z,24.20
2018-04-28T11:06:56.733Z,24.30
2018-04-28T11:09:24.230Z,24.39
2018-04-28T11:11:51.770Z,24.69
2018-04-28T11:14:19.257Z,25.00
2018-04-28T11:16:46.753Z,24.90
2018-04-28T11:19:14.241Z,25.00
2018-04-28T11:21:41.736Z,25.01
2018-04-28T11:24:09.256Z,25.06
2018-04-28T11:26:36.773Z,25.37
2018-04-28T11:29:04.302Z,25.44
2018-04-28T11:31:31.829Z,25.70
2018-04-28T11:33:59.345Z,25.77
2018-04-28T11:36:26.880Z,25.82
2018-04-28T11:38:54.512Z,25.48
2018-04-28T11:41:22.091Z,25.70
2018-04-28T11:43:50.511Z,25.96
2018-04-28T11:46:18.192Z,26.21
2018-04-28T11:48:45.696Z,26.38
2018-04-28T11:51:13.241Z,26.38
2018-04-28T11:53:40.798Z,26.48
2018-04-28T11:56:08.372Z,26.72
2018-04-28T11:58:35.842Z,26.96
2018-04-28T12:01:03.341Z,27.01
2018-04-28T12:03:30.846Z,26.90
2018-04-28T12:05:58.334Z,26.93
2018-04-28T12:08:25.842Z,27.18
2018-04-28T12:10:53.342Z,27.37
2018-04-28T12:13:20.876Z,27.62
2018-04-28T12:15:48.367Z,27.67
2018-04-28T12:18:15.859Z,27.85
2018-04-28T12:20:43.367Z,28.01
2018-04-28T12:23:10.846Z,28.35
2018-04-28T12:25:38.328Z,28.54
2018-04-28T12:28:05.839Z,28.65
2018-04-28T12:30:33.407Z,28.70
2018-04-28T12:33:01.025Z,28.40
2018-04-28T12:35:28.523Z,28.60
2018-04-28T12:37:56.023Z,29.15
2018-04-28T12:40:23.563Z,29.33
2018-04-28T12:42:51.103Z,29.14
2018-04-28T12:45:18.596Z,29.31
2018-04-28T12:47:46.095Z,29.70
2018-04-28T12:50:13.579Z,30.05
2018-04-28T12:52:41.053Z,30.71
2018-04-28T12:55:08.561Z,31.28
2018-04-28T12:57:36.054Z,31.55
2018-04-28T13:00:03.713Z,31.64
2018-04-28T13:02:31.206Z,31.77
2018-04-28T13:04:58.706Z,32.14
2018-04-28T13:07:26.192Z,32.60
2018-04-28T13:09:53.659Z,32.20
2018-04-28T13:12:21.141Z,31.90
2018-04-28T13:14:48.641Z,31.98
2018-04-28T13:17:16.146Z,31.64
2018-04-28T13:19:43.654Z,31.40
2018-04-28T13:22:11.190Z,31.76
2018-04-28T13:24:38.726Z,32.17
2018-04-28T13:27:06.242Z,31.94
2018-04-28T13:29:33.770Z,31.82
2018-04-28T13:32:01.280Z,31.62
2018-04-28T13:34:28.767Z,31.74
2018-04-28T13:36:56.703Z,31.60
2018-04-28T13:39:24.252Z,31.24
2018-04-28T13:41:51.726Z,31.53
2018-04-28T13:44:19.314Z,31.38
2018-04-28T13:46:46.818Z,31.46
2018-04-28T13:49:14.323Z,31.94
2018-04-28T13:51:41.816Z,32.27
2018-04-28T13:54:09.318Z,32.45
2018-04-28T13:56:36.801Z,32.46
2018-04-28T13:59:04.319Z,32.77
2018-04-28T14:01:31.824Z,32.99
2018-04-28T14:03:59.329Z,33.28
2018-04-28T14:06:26.861Z,33.60
2018-04-28T14:08:55.013Z,33.74
2018-04-28T14:11:23.390Z,34.42
2018-04-28T14:13:50.925Z,35.15
2018-04-28T14:16:18.434Z,36.10
2018-04-28T14:18:45.955Z,36.53
2018-04-28T14:21:13.428Z,36.65
2018-04-28T14:23:41.005Z,36.90
2018-04-28T14:26:08.603Z,37.25
2018-04-28T14:28:36.102Z,36.61
2018-04-28T14:31:03.605Z,37.18
2018-04-28T14:33:31.146Z,37.47
2018-04-28T14:35:58.643Z,37.39
2018-04-28T14:38:26.146Z,38.51
2018-04-28T14:40:53.660Z,38.44
2018-04-28T14:43:21.145Z,38.35
2018-04-28T14:45:48.618Z,38.77
2018-04-28T14:48:16.106Z,38.31
2018-04-28T14:50:43.598Z,38.27
2018-04-28T14:53:11.058Z,38.59
2018-04-28T14:55:38.541Z,38.17
2018-04-28T14:58:06.047Z,38.33
2018-04-28T15:00:33.555Z,39.06
2018-04-28T15:03:01.067Z,38.87
2018-04-28T15:05:28.559Z,39.03
2018-04-28T15:07:56.046Z,39.20
2018-04-28T15:10:23.547Z,39.03
2018-04-28T15:12:51.011Z,38.95
2018-04-28T15:15:18.493Z,38.02
2018-04-28T15:17:45.981Z,37.87
2018-04-28T15:20:13.475Z,37.72
2018-04-28T15:22:40.979Z,37.59
2018-04-28T15:25:08.500Z,37.16
2018-04-28T15:27:35.996Z,37.59
2018-04-28T15:30:03.479Z,37.57
2018-04-28T15:32:30.970Z,37.75
2018-04-28T15:34:58.559Z,37.72
2018-04-28T15:37:25.958Z,37.36
2018-04-28T15:39:53.439Z,36.83
2018-04-28T15:42:20.906Z,35.88
2018-04-28T15:44:48.415Z,35.37
2018-04-28T15:47:15.916Z,35.33
2018-04-28T15:49:43.400Z,35.61
2018-04-28T15:52:10.892Z,36.13
2018-04-28T15:54:38.400Z,37.18
2018-04-28T15:57:06.014Z,37.43
2018-04-28T15:59:33.530Z,36.71
2018-04-28T16:02:01.015Z,36.03
2018-04-28T16:04:28.494Z,36.40
2018-04-28T16:06:55.966Z,37.03
2018-04-28T16:09:23.497Z,37.15
2018-04-28T16:11:50.954Z,36.11
2018-04-28T16:14:18.466Z,35.36
2018-04-28T16:16:45.923Z,35.03
2018-04-28T16:19:13.394Z,34.64
2018-04-28T16:21:40.884Z,34.03
2018-04-28T16:24:08.406Z,33.36
2018-04-28T16:26:35.873Z,33.36
2018-04-28T16:29:03.396Z,33.81
2018-04-28T16:31:30.945Z,32.79
2018-04-28T16:33:58.431Z,31.59
2018-04-28T16:36:25.915Z,31.57
2018-04-28T16:38:53.378Z,32.31
2018-04-28T16:41:20.852Z,32.99
2018-04-28T16:43:48.342Z,32.84
2018-04-28T16:46:15.804Z,31.49
2018-04-28T16:48:43.337Z,30.63
2018-04-28T16:51:10.843Z,29.75
2018-04-28T16:53:38.367Z,28.99
2018-04-28T16:56:05.869Z,28.69
2018-04-28T16:58:33.403Z,28.58
2018-04-28T17:01:01.319Z,28.40
2018-04-28T17:03:28.821Z,28.50
2018-04-28T17:05:56.314Z,28.68
2018-04-28T17:08:23.812Z,29.10
2018-04-28T17:10:51.796Z,29.23
2018-04-28T17:13:19.295Z,29.14
2018-04-28T17:15:46.797Z,29.01
2018-04-28T17:18:14.282Z,28.66
2018-04-28T17:20:41.772Z,28.55
2018-04-28T17:23:09.264Z,28.35
2018-04-28T17:25:36.755Z,28.23
2018-04-28T17:28:04.301Z,28.22
2018-04-28T17:30:31.828Z,27.94
2018-04-28T17:32:59.301Z,27.57
2018-04-28T17:35:26.796Z,27.11
2018-04-28T17:37:54.272Z,26.74
2018-04-28T17:40:21.775Z,26.41
2018-04-28T17:42:49.352Z,26.06
2018-04-28T17:45:16.774Z,25.65
2018-04-28T17:47:44.250Z,25.34
2018-04-28T17:50:11.852Z,25.11
2018-04-28T17:52:39.263Z,24.87
2018-04-28T17:55:06.750Z,24.62
2018-04-28T17:57:34.212Z,24.39
2018-04-28T18:00:01.706Z,24.13
2018-04-28T18:02:29.199Z,23.95
2018-04-28T18:04:56.729Z,23.78
2018-04-28T18:07:24.702Z,23.66
2018-04-28T18:09:52.172Z,23.44
2018-04-28T18:12:19.686Z,23.29
2018-04-28T18:14:47.170Z,23.18
2018-04-28T18:17:14.673Z,23.09
2018-04-28T18:19:42.198Z,22.93
2018-04-28T18:22:09.768Z,22.83
2018-04-28T18:24:37.275Z,22.75
2018-04-28T18:27:04.815Z,22.60
2018-04-28T18:29:32.311Z,22.60
2018-04-28T18:31:59.803Z,22.52
2018-04-28T18:34:27.295Z,22.47
2018-04-28T18:36:54.785Z,22.29
2018-04-28T18:39:22.288Z,22.25
2018-04-28T18:41:50.140Z,22.16
2018-04-28T18:44:17.634Z,22.13
2018-04-28T18:46:45.142Z,22.12
2018-04-28T18:49:12.723Z,22.02
2018-04-28T18:51:40.229Z,21.92
2018-04-28T18:54:07.727Z,21.90
2018-04-28T18:56:35.282Z,21.86
2018-04-28T18:59:02.760Z,21.75
2018-04-28T19:01:30.264Z,21.67
2018-04-28T19:03:57.735Z,21.67
2018-04-28T19:06:25.239Z,21.56
2018-04-28T19:08:52.790Z,21.49
2018-04-28T19:11:20.271Z,21.45
2018-04-28T19:13:47.760Z,21.35
2018-04-28T19:16:15.279Z,21.29
2018-04-28T19:18:42.786Z,21.29
2018-04-28T19:21:10.280Z,21.25
2018-04-28T19:23:37.791Z,21.30
2018-04-28T19:26:05.303Z,21.20
2018-04-28T19:28:32.804Z,21.09
2018-04-28T19:31:00.292Z,21.06
2018-04-28T19:33:27.773Z,21.01
2018-04-28T19:35:55.280Z,20.94
2018-04-28T19:38:22.771Z,20.91
2018-04-28T19:40:51.716Z,20.81
2018-04-28T19:43:19.222Z,20.81
2018-04-28T19:45:46.733Z,20.72
2018-04-28T19:48:14.263Z,20.68
2018-04-28T19:50:41.778Z,20.63
2018-04-28T19:53:09.337Z,20.56
2018-04-28T19:55:36.862Z,20.53
2018-04-28T19:58:04.347Z,20.50
2018-04-28T20:00:31.919Z,20.51
2018-04-28T20:02:59.439Z,20.45
2018-04-28T20:05:26.935Z,20.47
2018-04-28T20:07:54.456Z,20.38
2018-04-28T20:10:21.978Z,20.33
2018-04-28T20:12:49.469Z,20.33
2018-04-28T20:15:16.968Z,20.21
2018-04-28T20:17:44.523Z,20.20
2018-04-28T20:20:12.016Z,20.11
2018-04-28T20:22:51.155Z,20.10
2018-04-28T20:25:23.702Z,20.11
2018-04-28T20:27:51.202Z,20.05
2018-04-28T20:30:18.905Z,20.06
2018-04-28T20:32:46.322Z,20.02
2018-04-28T20:35:13.815Z,19.96
2018-04-28T20:37:41.326Z,19.98
2018-04-28T20:40:08.831Z,19.96
2018-04-28T20:42:36.343Z,19.86
2018-04-28T20:45:03.854Z,19.91
2018-04-28T20:47:31.343Z,19.95
2018-04-28T20:49:58.910Z,19.92
2018-04-28T20:52:26.429Z,19.95
2018-04-28T20:54:53.970Z,19.87
2018-04-28T20:57:21.462Z,19.93
2018-04-28T20:59:48.963Z,19.97
2018-04-28T21:02:16.547Z,19.99
2018-04-28T21:04:44.039Z,20.00
2018-04-28T21:07:11.531Z,19.98
2018-04-28T21:09:39.054Z,19.95
2018-04-28T21:12:06.617Z,19.93
2018-04-28T21:14:34.109Z,19.87
2018-04-28T21:17:01.596Z,19.81
2018-04-28T21:19:29.133Z,19.84
2018-04-28T21:21:56.630Z,19.73
2018-04-28T21:24:24.141Z,19.68
2018-04-28T21:26:51.647Z,19.61
2018-04-28T21:29:19.167Z,19.62
2018-04-28T21:31:46.660Z,19.57
2018-04-28T21:34:14.157Z,19.52
2018-04-28T21:36:41.660Z,19.55
2018-04-28T21:39:09.879Z,19.51
2018-04-28T21:41:37.458Z,19.55
2018-04-28T21:44:05.011Z,19.56
2018-04-28T21:46:32.541Z,19.54
2018-04-28T21:48:59.978Z,19.57
2018-04-28T21:51:27.454Z,19.60
2018-04-28T21:53:54.995Z,19.54
2018-04-28T21:56:22.538Z,19.58
2018-04-28T21:58:50.406Z,19.58
2018-04-28T22:01:17.880Z,19.59
2018-04-28T22:03:45.367Z,19.54
2018-04-28T22:06:12.866Z,19.58
2018-04-28T22:08:40.370Z,19.59
2018-04-28T22:11:07.914Z,19.63
2018-04-28T22:13:35.414Z,19.60
2018-04-28T22:16:02.922Z,19.50
2018-04-28T22:18:30.418Z,19.53
2018-04-28T22:20:57.982Z,19.40
2018-04-28T22:23:25.528Z,19.31
2018-04-28T22:25:53.006Z,19.25
2018-04-28T22:28:20.507Z,19.19
2018-04-28T22:30:48.036Z,19.12
2018-04-28T22:33:15.776Z,18.99
2018-04-28T22:35:43.252Z,18.88
2018-04-28T22:38:10.834Z,18.84
2018-04-28T22:40:38.338Z,18.80
2018-04-28T22:43:05.865Z,18.76
2018-04-28T22:45:33.390Z,18.69
2018-04-28T22:48:00.951Z,18.70
2018-04-28T22:50:28.452Z,18.70
2018-04-28T22:52:55.955Z,18.76
2018-04-28T22:55:23.523Z,18.72
2018-04-28T22:57:51.019Z,18.71
2018-04-28T23:00:21.390Z,18.67
2018-04-28T23:02:48.913Z,18.66
2018-04-28T23:05:16.412Z,18.64
2018-04-28T23:07:43.931Z,18.58
2018-04-28T23:10:11.544Z,18.71
2018-04-28T23:12:39.102Z,18.73
2018-04-28T23:15:06.632Z,18.72
2018-04-28T23:17:34.113Z,18.74
2018-04-28T23:20:01.731Z,18.67
2018-04-28T23:22:29.385Z,18.64
2018-04-28T23:24:56.890Z,18.71
2018-04-28T23:27:24.359Z,18.67
2018-04-28T23:29:51.862Z,18.72
2018-04-28T23:32:19.358Z,18.76
2018-04-28T23:34:46.998Z,18.74
2018-04-28T23:37:14.538Z,18.62
2018-04-28T23:39:42.048Z,18.58
2018-04-28T23:42:09.560Z,18.62
2018-04-28T23:44:37.120Z,18.58
2018-04-28T23:47:04.635Z,18.54
2018-04-28T23:49:32.132Z,18.60
2018-04-28T23:51:59.633Z,18.73
2018-04-28T23:54:27.222Z,18.68
2018-04-28T23:56:54.740Z,18.61
2018-04-28T23:59:22.265Z,18.72
